sensor_id;sensor_type;location;lat;lon;timestamp;P1;durP1;ratioP1;P2;durP2;ratioP2
64868;SDS011;51349;52.424;10.840;2023-02-28T00:04:03;7.47;;;5.70;;
64868;SDS011;51349;52.424;10.840;2023-02-28T00:09:04;6.03;;;5.00;;
64868;SDS011;51349;52.424;10.840;2023-02-28T00:14:05;6.43;;;5.27;;
64868;SDS011;51349;52.424;10.840;2023-02-28T00:19:05;7.33;;;5.47;;
64868;SDS011;51349;52.424;10.840;2023-02-28T00:24:09;5.53;;;4.90;;
64868;SDS011;51349;52.424;10.840;2023-02-28T00:29:09;8.13;;;5.23;;
64868;SDS011;51349;52.424;10.840;2023-02-28T00:34:10;7.00;;;5.27;;
64868;SDS011;51349;52.424;10.840;2023-02-28T00:39:11;5.97;;;5.47;;
64868;SDS011;51349;52.424;10.840;2023-02-28T00:44:11;6.33;;;4.97;;
64868;SDS011;51349;52.424;10.840;2023-02-28T00:49:12;6.70;;;4.53;;
64868;SDS011;51349;52.424;10.840;2023-02-28T00:54:13;6.77;;;4.77;;
64868;SDS011;51349;52.424;10.840;2023-02-28T00:59:14;8.23;;;5.37;;
64868;SDS011;51349;52.424;10.840;2023-02-28T01:04:16;10.93;;;6.27;;
64868;SDS011;51349;52.424;10.840;2023-02-28T01:09:16;8.90;;;5.93;;
64868;SDS011;51349;52.424;10.840;2023-02-28T01:14:17;9.30;;;5.73;;
64868;SDS011;51349;52.424;10.840;2023-02-28T01:19:18;5.67;;;5.03;;
64868;SDS011;51349;52.424;10.840;2023-02-28T01:24:19;7.60;;;5.53;;
64868;SDS011;51349;52.424;10.840;2023-02-28T01:29:19;7.30;;;4.80;;
64868;SDS011;51349;52.424;10.840;2023-02-28T01:34:20;5.40;;;4.90;;
64868;SDS011;51349;52.424;10.840;2023-02-28T01:39:21;6.50;;;4.77;;
64868;SDS011;51349;52.424;10.840;2023-02-28T01:50:14;6.43;;;5.10;;
64868;SDS011;51349;52.424;10.840;2023-02-28T01:55:20;6.07;;;4.83;;
64868;SDS011;51349;52.424;10.840;2023-02-28T02:00:23;6.27;;;5.47;;
64868;SDS011;51349;52.424;10.840;2023-02-28T02:05:28;5.80;;;5.27;;
64868;SDS011;51349;52.424;10.840;2023-02-28T02:10:41;5.87;;;5.23;;
64868;SDS011;51349;52.424;10.840;2023-02-28T02:31:46;5.63;;;4.70;;
64868;SDS011;51349;52.424;10.840;2023-02-28T02:42:44;5.93;;;4.27;;
64868;SDS011;51349;52.424;10.840;2023-02-28T02:47:55;4.83;;;4.33;;
64868;SDS011;51349;52.424;10.840;2023-02-28T02:53:01;5.83;;;4.23;;
64868;SDS011;51349;52.424;10.840;2023-02-28T02:58:04;5.90;;;4.33;;
64868;SDS011;51349;52.424;10.840;2023-02-28T03:03:19;5.77;;;4.10;;
64868;SDS011;51349;52.424;10.840;2023-02-28T03:08:29;5.50;;;3.87;;
64868;SDS011;51349;52.424;10.840;2023-02-28T03:35:12;3.97;;;3.50;;
64868;SDS011;51349;52.424;10.840;2023-02-28T03:40:23;4.50;;;3.97;;
64868;SDS011;51349;52.424;10.840;2023-02-28T03:45:29;6.30;;;3.90;;
64868;SDS011;51349;52.424;10.840;2023-02-28T03:51:06;4.60;;;4.17;;
64868;SDS011;51349;52.424;10.840;2023-02-28T03:56:05;4.30;;;3.90;;
64868;SDS011;51349;52.424;10.840;2023-02-28T04:01:26;4.20;;;3.80;;
64868;SDS011;51349;52.424;10.840;2023-02-28T04:06:32;7.40;;;4.20;;
64868;SDS011;51349;52.424;10.840;2023-02-28T04:11:38;4.83;;;3.97;;
64868;SDS011;51349;52.424;10.840;2023-02-28T04:16:41;6.00;;;4.60;;
64868;SDS011;51349;52.424;10.840;2023-02-28T04:21:43;5.20;;;3.87;;
64868;SDS011;51349;52.424;10.840;2023-02-28T04:26:46;5.83;;;3.57;;
64868;SDS011;51349;52.424;10.840;2023-02-28T04:31:48;4.50;;;3.47;;
64868;SDS011;51349;52.424;10.840;2023-02-28T04:36:49;4.57;;;3.47;;
64868;SDS011;51349;52.424;10.840;2023-02-28T04:41:53;3.70;;;3.30;;
64868;SDS011;51349;52.424;10.840;2023-02-28T04:46:54;4.30;;;3.73;;
64868;SDS011;51349;52.424;10.840;2023-02-28T04:51:54;6.10;;;3.90;;
64868;SDS011;51349;52.424;10.840;2023-02-28T04:56:55;3.90;;;3.50;;
64868;SDS011;51349;52.424;10.840;2023-02-28T05:01:56;5.00;;;3.63;;
64868;SDS011;51349;52.424;10.840;2023-02-28T05:06:56;6.07;;;4.10;;
64868;SDS011;51349;52.424;10.840;2023-02-28T05:11:57;5.93;;;3.97;;
64868;SDS011;51349;52.424;10.840;2023-02-28T05:16:58;4.23;;;3.50;;
64868;SDS011;51349;52.424;10.840;2023-02-28T05:21:58;4.20;;;3.80;;
64868;SDS011;51349;52.424;10.840;2023-02-28T05:26:59;4.23;;;3.83;;
64868;SDS011;51349;52.424;10.840;2023-02-28T05:32:00;5.27;;;4.40;;
64868;SDS011;51349;52.424;10.840;2023-02-28T05:37:00;4.77;;;3.93;;
64868;SDS011;51349;52.424;10.840;2023-02-28T05:42:01;4.90;;;4.10;;
64868;SDS011;51349;52.424;10.840;2023-02-28T05:47:02;5.57;;;3.87;;
64868;SDS011;51349;52.424;10.840;2023-02-28T05:52:03;4.77;;;4.23;;
64868;SDS011;51349;52.424;10.840;2023-02-28T05:57:03;3.90;;;3.47;;
64868;SDS011;51349;52.424;10.840;2023-02-28T06:02:04;4.70;;;3.80;;
64868;SDS011;51349;52.424;10.840;2023-02-28T06:07:05;4.37;;;3.40;;
64868;SDS011;51349;52.424;10.840;2023-02-28T06:12:06;4.17;;;3.73;;
64868;SDS011;51349;52.424;10.840;2023-02-28T06:17:09;4.60;;;3.33;;
64868;SDS011;51349;52.424;10.840;2023-02-28T06:22:09;7.43;;;3.93;;
64868;SDS011;51349;52.424;10.840;2023-02-28T06:27:10;4.93;;;3.87;;
64868;SDS011;51349;52.424;10.840;2023-02-28T06:32:11;4.47;;;3.67;;
64868;SDS011;51349;52.424;10.840;2023-02-28T06:37:11;4.43;;;3.27;;
64868;SDS011;51349;52.424;10.840;2023-02-28T06:42:12;3.77;;;3.37;;
64868;SDS011;51349;52.424;10.840;2023-02-28T06:47:13;3.37;;;3.07;;
64868;SDS011;51349;52.424;10.840;2023-02-28T06:52:14;4.60;;;3.97;;
64868;SDS011;51349;52.424;10.840;2023-02-28T06:57:16;6.67;;;4.20;;
64868;SDS011;51349;52.424;10.840;2023-02-28T07:02:16;4.50;;;3.93;;
64868;SDS011;51349;52.424;10.840;2023-02-28T07:07:17;4.73;;;3.83;;
64868;SDS011;51349;52.424;10.840;2023-02-28T07:12:18;6.53;;;4.13;;
64868;SDS011;51349;52.424;10.840;2023-02-28T07:17:18;5.67;;;5.13;;
64868;SDS011;51349;52.424;10.840;2023-02-28T07:22:19;6.53;;;5.83;;
64868;SDS011;51349;52.424;10.840;2023-02-28T07:27:20;6.87;;;5.33;;
64868;SDS011;51349;52.424;10.840;2023-02-28T07:32:23;5.83;;;4.77;;
64868;SDS011;51349;52.424;10.840;2023-02-28T07:37:24;4.60;;;4.20;;
64868;SDS011;51349;52.424;10.840;2023-02-28T07:42:25;4.93;;;3.70;;
64868;SDS011;51349;52.424;10.840;2023-02-28T07:47:25;5.20;;;4.67;;
64868;SDS011;51349;52.424;10.840;2023-02-28T07:52:26;6.07;;;4.47;;
64868;SDS011;51349;52.424;10.840;2023-02-28T07:57:27;6.73;;;3.90;;
64868;SDS011;51349;52.424;10.840;2023-02-28T08:02:28;7.63;;;4.23;;
64868;SDS011;51349;52.424;10.840;2023-02-28T08:07:28;7.90;;;4.90;;
64868;SDS011;51349;52.424;10.840;2023-02-28T08:12:29;8.23;;;4.50;;
64868;SDS011;51349;52.424;10.840;2023-02-28T08:17:29;5.10;;;4.60;;
64868;SDS011;51349;52.424;10.840;2023-02-28T08:22:30;10.97;;;6.80;;
64868;SDS011;51349;52.424;10.840;2023-02-28T08:27:31;6.83;;;5.93;;
64868;SDS011;51349;52.424;10.840;2023-02-28T08:32:32;8.67;;;5.40;;
64868;SDS011;51349;52.424;10.840;2023-02-28T08:37:33;9.37;;;6.77;;
64868;SDS011;51349;52.424;10.840;2023-02-28T08:42:34;13.87;;;7.47;;
64868;SDS011;51349;52.424;10.840;2023-02-28T08:47:35;11.50;;;8.00;;
64868;SDS011;51349;52.424;10.840;2023-02-28T08:52:35;13.67;;;9.20;;
64868;SDS011;51349;52.424;10.840;2023-02-28T08:57:36;15.87;;;8.77;;
64868;SDS011;51349;52.424;10.840;2023-02-28T09:02:38;16.60;;;9.10;;
64868;SDS011;51349;52.424;10.840;2023-02-28T09:07:38;11.67;;;7.10;;
64868;SDS011;51349;52.424;10.840;2023-02-28T09:12:39;9.67;;;6.50;;
64868;SDS011;51349;52.424;10.840;2023-02-28T09:17:40;13.27;;;6.47;;
64868;SDS011;51349;52.424;10.840;2023-02-28T09:22:40;9.33;;;5.40;;
64868;SDS011;51349;52.424;10.840;2023-02-28T09:27:41;6.77;;;5.00;;
64868;SDS011;51349;52.424;10.840;2023-02-28T09:32:42;7.37;;;5.70;;
64868;SDS011;51349;52.424;10.840;2023-02-28T09:37:42;7.23;;;5.03;;
64868;SDS011;51349;52.424;10.840;2023-02-28T09:42:44;7.27;;;4.90;;
64868;SDS011;51349;52.424;10.840;2023-02-28T09:47:47;4.80;;;4.40;;
64868;SDS011;51349;52.424;10.840;2023-02-28T09:52:50;4.93;;;4.33;;
64868;SDS011;51349;52.424;10.840;2023-02-28T09:57:50;5.43;;;4.33;;
64868;SDS011;51349;52.424;10.840;2023-02-28T10:08:16;5.00;;;4.47;;
64868;SDS011;51349;52.424;10.840;2023-02-28T10:13:27;5.53;;;4.63;;
64868;SDS011;51349;52.424;10.840;2023-02-28T10:18:37;5.10;;;4.60;;
64868;SDS011;51349;52.424;10.840;2023-02-28T10:23:45;5.83;;;4.43;;
64868;SDS011;51349;52.424;10.840;2023-02-28T10:28:48;4.73;;;4.33;;
64868;SDS011;51349;52.424;10.840;2023-02-28T10:33:50;7.40;;;4.70;;
64868;SDS011;51349;52.424;10.840;2023-02-28T10:38:51;4.40;;;4.00;;
64868;SDS011;51349;52.424;10.840;2023-02-28T10:43:52;4.75;;;4.35;;
64868;SDS011;51349;52.424;10.840;2023-02-28T10:49:03;3.95;;;3.60;;
64868;SDS011;51349;52.424;10.840;2023-02-28T10:54:06;3.53;;;3.17;;
64868;SDS011;51349;52.424;10.840;2023-02-28T10:59:30;3.80;;;3.47;;
64868;SDS011;51349;52.424;10.840;2023-02-28T11:04:33;3.60;;;3.30;;
64868;SDS011;51349;52.424;10.840;2023-02-28T11:09:39;4.22;;;3.92;;
64868;SDS011;51349;52.424;10.840;2023-02-28T11:15:03;2.70;;;2.35;;
64868;SDS011;51349;52.424;10.840;2023-02-28T11:20:14;2.40;;;2.20;;
64868;SDS011;51349;52.424;10.840;2023-02-28T11:25:33;2.25;;;2.05;;
64868;SDS011;51349;52.424;10.840;2023-02-28T11:30:38;2.63;;;2.42;;
64868;SDS011;51349;52.424;10.840;2023-02-28T11:35:41;2.90;;;2.70;;
64868;SDS011;51349;52.424;10.840;2023-02-28T11:46:00;2.63;;;2.42;;
64868;SDS011;51349;52.424;10.840;2023-02-28T11:56:32;3.47;;;2.70;;
64868;SDS011;51349;52.424;10.840;2023-02-28T12:01:38;2.70;;;2.55;;
64868;SDS011;51349;52.424;10.840;2023-02-28T12:12:39;3.10;;;2.90;;
64868;SDS011;51349;52.424;10.840;2023-02-28T12:23:40;3.30;;;3.00;;
64868;SDS011;51349;52.424;10.840;2023-02-28T12:28:58;3.15;;;2.95;;
64868;SDS011;51349;52.424;10.840;2023-02-28T12:34:37;2.70;;;2.50;;
64868;SDS011;51349;52.424;10.840;2023-02-28T12:39:48;2.88;;;2.67;;
64868;SDS011;51349;52.424;10.840;2023-02-28T12:44:54;3.13;;;2.90;;
64868;SDS011;51349;52.424;10.840;2023-02-28T12:50:07;3.28;;;3.08;;
64868;SDS011;51349;52.424;10.840;2023-02-28T13:00:34;3.00;;;2.80;;
64868;SDS011;51349;52.424;10.840;2023-02-28T13:10:56;3.15;;;2.90;;
64868;SDS011;51349;52.424;10.840;2023-02-28T13:21:00;5.47;;;3.03;;
64868;SDS011;51349;52.424;10.840;2023-02-28T13:26:01;3.70;;;3.33;;
64868;SDS011;51349;52.424;10.840;2023-02-28T13:31:03;3.95;;;3.20;;
64868;SDS011;51349;52.424;10.840;2023-02-28T13:46:34;3.00;;;2.80;;
64868;SDS011;51349;52.424;10.840;2023-02-28T13:51:41;2.97;;;2.65;;
64868;SDS011;51349;52.424;10.840;2023-02-28T14:02:11;2.72;;;2.53;;
64868;SDS011;51349;52.424;10.840;2023-02-28T14:07:32;2.90;;;2.60;;
64868;SDS011;51349;52.424;10.840;2023-02-28T14:17:54;3.35;;;3.05;;
64868;SDS011;51349;52.424;10.840;2023-02-28T14:38:50;2.55;;;2.35;;
64868;SDS011;51349;52.424;10.840;2023-02-28T14:43:57;2.70;;;2.50;;
64868;SDS011;51349;52.424;10.840;2023-02-28T14:49:00;2.30;;;2.10;;
64868;SDS011;51349;52.424;10.840;2023-02-28T14:54:01;2.30;;;2.10;;
64868;SDS011;51349;52.424;10.840;2023-02-28T14:59:04;2.63;;;2.35;;
64868;SDS011;51349;52.424;10.840;2023-02-28T15:04:06;2.30;;;2.10;;
64868;SDS011;51349;52.424;10.840;2023-02-28T15:09:17;2.50;;;2.30;;
64868;SDS011;51349;52.424;10.840;2023-02-28T15:14:19;2.50;;;2.30;;
64868;SDS011;51349;52.424;10.840;2023-02-28T15:24:36;3.47;;;2.67;;
64868;SDS011;51349;52.424;10.840;2023-02-28T15:29:57;2.58;;;2.38;;
64868;SDS011;51349;52.424;10.840;2023-02-28T15:35:25;2.97;;;2.22;;
64868;SDS011;51349;52.424;10.840;2023-02-28T15:40:30;2.42;;;2.22;;
64868;SDS011;51349;52.424;10.840;2023-02-28T15:51:23;2.30;;;2.10;;
64868;SDS011;51349;52.424;10.840;2023-02-28T16:01:27;2.90;;;2.70;;
64868;SDS011;51349;52.424;10.840;2023-02-28T16:06:33;2.60;;;2.07;;
64868;SDS011;51349;52.424;10.840;2023-02-28T16:11:38;2.23;;;2.13;;
64868;SDS011;51349;52.424;10.840;2023-02-28T16:16:42;3.10;;;2.60;;
64868;SDS011;51349;52.424;10.840;2023-02-28T16:21:44;3.30;;;3.00;;
64868;SDS011;51349;52.424;10.840;2023-02-28T16:26:46;3.40;;;3.10;;
64868;SDS011;51349;52.424;10.840;2023-02-28T16:31:48;3.57;;;3.13;;
64868;SDS011;51349;52.424;10.840;2023-02-28T16:36:51;3.47;;;3.13;;
64868;SDS011;51349;52.424;10.840;2023-02-28T16:41:52;3.57;;;3.27;;
64868;SDS011;51349;52.424;10.840;2023-02-28T16:46:53;3.20;;;2.90;;
64868;SDS011;51349;52.424;10.840;2023-02-28T16:51:54;3.13;;;2.93;;
64868;SDS011;51349;52.424;10.840;2023-02-28T16:56:55;3.03;;;2.83;;
64868;SDS011;51349;52.424;10.840;2023-02-28T17:01:55;4.37;;;3.40;;
64868;SDS011;51349;52.424;10.840;2023-02-28T17:06:59;3.87;;;3.47;;
64868;SDS011;51349;52.424;10.840;2023-02-28T17:12:00;5.73;;;3.40;;
64868;SDS011;51349;52.424;10.840;2023-02-28T17:17:00;3.60;;;3.30;;
64868;SDS011;51349;52.424;10.840;2023-02-28T17:22:01;12.90;;;5.53;;
64868;SDS011;51349;52.424;10.840;2023-02-28T17:27:03;7.17;;;5.77;;
64868;SDS011;51349;52.424;10.840;2023-02-28T17:32:04;4.20;;;3.80;;
64868;SDS011;51349;52.424;10.840;2023-02-28T17:37:08;3.93;;;3.63;;
64868;SDS011;51349;52.424;10.840;2023-02-28T17:42:09;3.70;;;3.23;;
64868;SDS011;51349;52.424;10.840;2023-02-28T17:47:11;3.30;;;3.00;;
64868;SDS011;51349;52.424;10.840;2023-02-28T17:52:12;4.33;;;3.77;;
64868;SDS011;51349;52.424;10.840;2023-02-28T17:57:16;4.20;;;3.43;;
64868;SDS011;51349;52.424;10.840;2023-02-28T18:02:19;5.87;;;5.20;;
64868;SDS011;51349;52.424;10.840;2023-02-28T18:07:20;9.13;;;6.60;;
64868;SDS011;51349;52.424;10.840;2023-02-28T18:12:22;7.77;;;5.93;;
64868;SDS011;51349;52.424;10.840;2023-02-28T18:17:22;8.77;;;6.60;;
64868;SDS011;51349;52.424;10.840;2023-02-28T18:22:23;7.40;;;6.17;;
64868;SDS011;51349;52.424;10.840;2023-02-28T18:27:24;9.53;;;6.47;;
64868;SDS011;51349;52.424;10.840;2023-02-28T18:32:24;8.33;;;6.47;;
64868;SDS011;51349;52.424;10.840;2023-02-28T18:37:25;11.27;;;8.53;;
64868;SDS011;51349;52.424;10.840;2023-02-28T18:42:26;10.20;;;7.30;;
64868;SDS011;51349;52.424;10.840;2023-02-28T18:47:27;7.00;;;5.77;;
64868;SDS011;51349;52.424;10.840;2023-02-28T18:52:28;9.67;;;6.17;;
64868;SDS011;51349;52.424;10.840;2023-02-28T18:57:28;8.57;;;7.07;;
64868;SDS011;51349;52.424;10.840;2023-02-28T19:02:29;9.57;;;7.30;;
64868;SDS011;51349;52.424;10.840;2023-02-28T19:07:30;10.30;;;7.23;;
64868;SDS011;51349;52.424;10.840;2023-02-28T19:12:34;8.30;;;6.77;;
64868;SDS011;51349;52.424;10.840;2023-02-28T19:17:35;8.43;;;6.90;;
64868;SDS011;51349;52.424;10.840;2023-02-28T19:22:36;7.47;;;6.53;;
64868;SDS011;51349;52.424;10.840;2023-02-28T19:27:37;9.87;;;7.30;;
64868;SDS011;51349;52.424;10.840;2023-02-28T19:32:38;10.37;;;8.67;;
64868;SDS011;51349;52.424;10.840;2023-02-28T19:37:39;10.70;;;7.27;;
64868;SDS011;51349;52.424;10.840;2023-02-28T19:42:40;9.77;;;7.47;;
64868;SDS011;51349;52.424;10.840;2023-02-28T19:47:41;13.53;;;8.23;;
64868;SDS011;51349;52.424;10.840;2023-02-28T19:52:42;15.80;;;10.17;;
64868;SDS011;51349;52.424;10.840;2023-02-28T19:57:44;17.00;;;9.70;;
64868;SDS011;51349;52.424;10.840;2023-02-28T20:02:44;12.73;;;8.57;;
64868;SDS011;51349;52.424;10.840;2023-02-28T20:07:45;41.27;;;20.27;;
64868;SDS011;51349;52.424;10.840;2023-02-28T20:12:45;11.63;;;8.87;;
64868;SDS011;51349;52.424;10.840;2023-02-28T20:17:46;12.97;;;8.73;;
64868;SDS011;51349;52.424;10.840;2023-02-28T20:22:47;10.47;;;7.23;;
64868;SDS011;51349;52.424;10.840;2023-02-28T20:27:48;9.17;;;7.60;;
64868;SDS011;51349;52.424;10.840;2023-02-28T20:32:48;13.97;;;9.17;;
64868;SDS011;51349;52.424;10.840;2023-02-28T20:37:49;9.83;;;6.97;;
64868;SDS011;51349;52.424;10.840;2023-02-28T20:42:53;7.37;;;5.73;;
64868;SDS011;51349;52.424;10.840;2023-02-28T20:47:54;8.67;;;5.57;;
64868;SDS011;51349;52.424;10.840;2023-02-28T20:52:54;8.70;;;4.93;;
64868;SDS011;51349;52.424;10.840;2023-02-28T20:57:55;5.70;;;4.70;;
64868;SDS011;51349;52.424;10.840;2023-02-28T21:02:57;5.80;;;4.60;;
64868;SDS011;51349;52.424;10.840;2023-02-28T21:07:58;8.97;;;6.23;;
64868;SDS011;51349;52.424;10.840;2023-02-28T21:12:58;7.47;;;6.00;;
64868;SDS011;51349;52.424;10.840;2023-02-28T21:17:59;7.03;;;5.10;;
64868;SDS011;51349;52.424;10.840;2023-02-28T21:23:00;6.23;;;5.17;;
64868;SDS011;51349;52.424;10.840;2023-02-28T21:28:00;5.83;;;4.97;;
64868;SDS011;51349;52.424;10.840;2023-02-28T21:33:02;9.97;;;6.43;;
64868;SDS011;51349;52.424;10.840;2023-02-28T21:38:03;9.37;;;5.37;;
64868;SDS011;51349;52.424;10.840;2023-02-28T21:43:04;8.73;;;5.50;;
64868;SDS011;51349;52.424;10.840;2023-02-28T21:48:04;9.67;;;6.47;;
64868;SDS011;51349;52.424;10.840;2023-02-28T21:53:05;10.33;;;7.10;;
64868;SDS011;51349;52.424;10.840;2023-02-28T21:58:05;11.50;;;7.90;;
64868;SDS011;51349;52.424;10.840;2023-02-28T22:03:06;10.87;;;6.37;;
64868;SDS011;51349;52.424;10.840;2023-02-28T22:08:07;10.67;;;7.43;;
64868;SDS011;51349;52.424;10.840;2023-02-28T22:13:08;11.33;;;6.70;;
64868;SDS011;51349;52.424;10.840;2023-02-28T22:18:12;8.77;;;5.73;;
64868;SDS011;51349;52.424;10.840;2023-02-28T22:23:13;6.40;;;5.70;;
64868;SDS011;51349;52.424;10.840;2023-02-28T22:28:13;6.17;;;5.50;;
64868;SDS011;51349;52.424;10.840;2023-02-28T22:33:14;8.07;;;6.10;;
64868;SDS011;51349;52.424;10.840;2023-02-28T22:38:15;9.33;;;5.87;;
64868;SDS011;51349;52.424;10.840;2023-02-28T22:43:16;9.97;;;6.23;;
64868;SDS011;51349;52.424;10.840;2023-02-28T22:48:16;7.17;;;5.77;;
64868;SDS011;51349;52.424;10.840;2023-02-28T22:53:23;9.53;;;6.47;;
64868;SDS011;51349;52.424;10.840;2023-02-28T22:58:24;12.43;;;7.30;;
64868;SDS011;51349;52.424;10.840;2023-02-28T23:03:25;14.57;;;6.60;;
64868;SDS011;51349;52.424;10.840;2023-02-28T23:08:26;13.17;;;7.43;;
64868;SDS011;51349;52.424;10.840;2023-02-28T23:13:26;12.97;;;7.03;;
64868;SDS011;51349;52.424;10.840;2023-02-28T23:18:27;11.77;;;6.57;;
64868;SDS011;51349;52.424;10.840;2023-02-28T23:23:27;11.37;;;6.90;;
64868;SDS011;51349;52.424;10.840;2023-02-28T23:28:32;10.40;;;6.60;;
64868;SDS011;51349;52.424;10.840;2023-02-28T23:33:32;12.43;;;7.63;;
64868;SDS011;51349;52.424;10.840;2023-02-28T23:38:33;11.60;;;7.27;;
64868;SDS011;51349;52.424;10.840;2023-02-28T23:43:35;10.37;;;6.47;;
64868;SDS011;51349;52.424;10.840;2023-02-28T23:48:36;12.33;;;7.27;;
64868;SDS011;51349;52.424;10.840;2023-02-28T23:53:38;9.97;;;6.77;;
64868;SDS011;51349;52.424;10.840;2023-02-28T23:58:40;9.53;;;6.77;;
